Time;durP1;ratioP1;P1;durP2;ratioP2;P2;SDS_P1;SDS_P2;PMS_P1;PMS_P2;Temp;Humidity;BMP_temperature;BMP_pressure;BME280_temperature;BME280_humidity;BME280_pressure;Samples;Min_cycle;Max_cycle;Signal;HPM_P1;HPM_P2
2022/03/29 00:01:05;;;;;;;0.63;0.20;;;6.60;99.90;;;;;;5059167;28;20040;-79
2022/03/29 00:03:32;;;;;;;0.10;0.10;;;6.60;99.90;;;;;;5042989;28;20405;-80
2022/03/29 00:05:59;;;;;;;0.10;0.10;;;6.60;99.90;;;;;;5058983;28;20037;-79
2022/03/29 00:08:25;;;;;;;0.10;0.10;;;6.60;99.90;;;;;;5075556;28;20032;-79
2022/03/29 00:10:52;;;;;;;0.10;0.10;;;6.60;99.90;;;;;;5074924;28;20524;-79
2022/03/29 00:13:19;;;;;;;0.10;0.10;;;6.60;99.90;;;;;;5057493;28;20040;-79
2022/03/29 00:15:46;;;;;;;0.00;0.00;;;6.60;99.90;;;;;;5074480;28;20063;-79
2022/03/29 00:18:13;;;;;;;0.10;0.10;;;6.60;99.90;;;;;;5057605;28;20041;-80
2022/03/29 00:20:39;;;;;;;0.10;0.10;;;6.50;99.90;;;;;;5090808;28;20094;-79
2022/03/29 00:23:06;;;;;;;0.10;0.10;;;6.60;99.90;;;;;;5057890;28;20076;-79
2022/03/29 00:25:33;;;;;;;0.20;0.20;;;6.50;99.90;;;;;;5073820;28;20524;-80
2022/03/29 00:28:00;;;;;;;0.10;0.10;;;6.50;99.90;;;;;;5090788;28;20079;-80
2022/03/29 00:30:28;;;;;;;0.20;0.20;;;6.60;99.90;;;;;;5057909;28;20044;-79
2022/03/29 00:32:55;;;;;;;0.10;0.10;;;6.50;99.90;;;;;;5058250;28;20044;-79
2022/03/29 00:35:24;;;;;;;0.10;0.10;;;6.60;99.90;;;;;;5057506;28;20036;-79
2022/03/29 00:37:51;;;;;;;0.10;0.10;;;6.50;99.90;;;;;;5058064;28;20123;-80
2022/03/29 00:40:19;;;;;;;0.10;0.10;;;6.50;99.90;;;;;;5041220;28;20032;-79
2022/03/29 00:42:46;;;;;;;0.10;0.10;;;6.50;99.90;;;;;;5074019;28;20036;-80
2022/03/29 00:45:12;;;;;;;0.10;0.10;;;6.50;99.90;;;;;;5073558;28;20497;-79
2022/03/29 00:47:39;;;;;;;0.10;0.10;;;6.60;99.90;;;;;;5057570;28;20041;-79
2022/03/29 00:50:06;;;;;;;0.10;0.10;;;6.60;99.90;;;;;;5041020;28;20040;-79
2022/03/29 00:52:34;;;;;;;0.10;0.10;;;6.50;99.90;;;;;;5040946;28;20041;-79
2022/03/29 00:55:05;;;;;;;0.10;0.10;;;6.60;99.90;;;;;;5057182;28;20052;-79
2022/03/29 00:57:34;;;;;;;0.10;0.10;;;6.50;99.90;;;;;;5041338;28;20413;-79
2022/03/29 01:00:02;;;;;;;0.10;0.10;;;6.60;99.90;;;;;;5057507;28;20036;-79
2022/03/29 01:02:28;;;;;;;0.10;0.10;;;6.60;99.90;;;;;;5040697;28;20059;-80
2022/03/29 01:04:55;;;;;;;0.10;0.10;;;6.60;99.90;;;;;;5040593;28;20041;-79
2022/03/29 01:07:24;;;;;;;0.10;0.10;;;6.60;99.90;;;;;;5040463;28;20129;-79
2022/03/29 01:09:51;;;;;;;0.10;0.10;;;6.60;99.90;;;;;;5041345;28;20036;-79
2022/03/29 01:12:18;;;;;;;0.10;0.10;;;6.60;99.90;;;;;;5002323;28;1113663;-79
2022/03/29 01:14:44;;;;;;;0.10;0.10;;;6.60;99.90;;;;;;5058037;28;20056;-80
2022/03/29 01:20:00;;;;;;;0.10;0.10;;;6.70;99.90;;;;;;5062928;28;20040;-79
2022/03/29 01:22:29;;;;;;;0.10;0.10;;;6.60;99.90;;;;;;5090582;28;20408;-79
2022/03/29 01:24:56;;;;;;;0.10;0.10;;;6.60;99.90;;;;;;5089880;28;20047;-79
2022/03/29 01:27:24;;;;;;;0.10;0.10;;;6.60;99.90;;;;;;5090235;28;20518;-79
2022/03/29 01:29:57;;;;;;;0.10;0.10;;;6.50;99.90;;;;;;5041384;28;20037;-79
2022/03/29 01:32:27;;;;;;;0.10;0.10;;;6.60;99.90;;;;;;5090863;28;20037;-79
2022/03/29 01:34:55;;;;;;;0.10;0.10;;;6.60;99.90;;;;;;5057976;28;20047;-79
2022/03/29 01:37:21;;;;;;;0.10;0.10;;;6.60;99.90;;;;;;5057203;28;20051;-79
2022/03/29 01:39:48;;;;;;;0.10;0.10;;;6.60;99.90;;;;;;5057516;28;20045;-80
2022/03/29 01:42:17;;;;;;;0.00;0.00;;;6.60;99.90;;;;;;5057362;28;20044;-79
2022/03/29 01:44:43;;;;;;;0.10;0.10;;;6.60;99.90;;;;;;5057429;28;20041;-79
2022/03/29 01:47:10;;;;;;;0.10;0.10;;;6.60;99.90;;;;;;5090483;28;20043;-79
2022/03/29 01:49:38;;;;;;;0.35;0.35;;;6.60;99.90;;;;;;5090024;28;20087;-79
2022/03/29 01:52:04;;;;;;;0.10;0.10;;;6.60;99.90;;;;;;5090125;28;20489;-80
2022/03/29 01:54:31;;;;;;;0.10;0.10;;;6.60;99.90;;;;;;5090424;28;20052;-79
2022/03/29 01:56:58;;;;;;;0.10;0.10;;;6.60;99.90;;;;;;5057047;28;20524;-79
2022/03/29 01:59:24;;;;;;;0.10;0.10;;;6.60;99.90;;;;;;5056918;28;20036;-79
2022/03/29 02:01:52;;;;;;;0.10;0.10;;;6.60;99.90;;;;;;5057022;28;20040;-79
2022/03/29 02:04:19;;;;;;;0.10;0.10;;;6.50;99.90;;;;;;5056750;28;20044;-79
2022/03/29 02:06:45;;;;;;;0.10;0.10;;;6.50;99.90;;;;;;5040770;28;20040;-80
2022/03/29 02:09:12;;;;;;;0.10;0.10;;;6.50;99.90;;;;;;5056760;28;20043;-79
2022/03/29 02:11:42;;;;;;;0.10;0.10;;;6.50;99.90;;;;;;5040187;28;20053;-79
2022/03/29 02:14:09;;;;;;;0.10;0.10;;;6.50;99.90;;;;;;5056924;28;20044;-80
2022/03/29 02:16:36;;;;;;;0.10;0.10;;;6.50;99.90;;;;;;5056574;28;20401;-79
2022/03/29 02:19:03;;;;;;;0.10;0.10;;;6.50;99.90;;;;;;5057087;28;20033;-79
2022/03/29 02:21:30;;;;;;;0.10;0.10;;;6.60;99.90;;;;;;5040117;28;20513;-79
2022/03/29 02:23:56;;;;;;;0.10;0.10;;;6.50;99.90;;;;;;5073199;28;20083;-79
2022/03/29 02:26:23;;;;;;;0.10;0.10;;;6.60;99.90;;;;;;5089287;28;20505;-79
2022/03/29 02:28:50;;;;;;;0.10;0.10;;;6.50;99.90;;;;;;5079506;28;20112;-79
2022/03/29 02:31:17;;;;;;;0.10;0.10;;;6.40;99.90;;;;;;5060210;28;20059;-80
2022/03/29 02:33:43;;;;;;;0.10;0.10;;;6.40;99.90;;;;;;5059876;28;20051;-80
2022/03/29 02:36:12;;;;;;;0.20;0.20;;;6.40;99.90;;;;;;5076461;28;20075;-79
2022/03/29 02:38:39;;;;;;;0.10;0.10;;;6.40;99.90;;;;;;5076352;28;20515;-80
2022/03/29 02:41:06;;;;;;;0.20;0.20;;;6.50;99.90;;;;;;5109691;28;20040;-79
2022/03/29 02:43:32;;;;;;;0.10;0.10;;;6.40;99.90;;;;;;5109481;28;20040;-79
2022/03/29 02:45:59;;;;;;;0.10;0.10;;;6.50;99.90;;;;;;5060438;28;20124;-79
2022/03/29 02:48:26;;;;;;;0.10;0.10;;;6.40;99.90;;;;;;5109721;28;20378;-80
2022/03/29 02:50:53;;;;;;;0.10;0.10;;;6.40;99.90;;;;;;5076282;28;20485;-80
2022/03/29 02:53:19;;;;;;;0.17;0.17;;;6.50;99.90;;;;;;5076166;28;20126;-79
2022/03/29 02:55:46;;;;;;;0.15;0.15;;;6.40;99.90;;;;;;5076005;28;20081;-79
2022/03/29 02:58:13;;;;;;;0.10;0.10;;;6.40;99.90;;;;;;5109501;28;20048;-80
2022/03/29 03:00:39;;;;;;;0.10;0.10;;;6.40;99.90;;;;;;5059274;28;20054;-79
2022/03/29 03:03:06;;;;;;;0.10;0.10;;;6.50;99.90;;;;;;5075929;28;20036;-79
2022/03/29 03:05:33;;;;;;;0.10;0.10;;;6.40;99.90;;;;;;5108967;28;20074;-79
2022/03/29 03:08:00;;;;;;;0.10;0.10;;;6.40;99.90;;;;;;5059963;28;20047;-79
2022/03/29 03:10:27;;;;;;;0.10;0.10;;;6.40;99.90;;;;;;5092688;28;20071;-80
2022/03/29 03:12:54;;;;;;;0.10;0.10;;;6.40;99.90;;;;;;5059352;28;20091;-79
2022/03/29 03:15:23;;;;;;;0.10;0.10;;;6.40;99.90;;;;;;5075926;28;20043;-79
2022/03/29 03:17:54;;;;;;;0.10;0.10;;;6.40;99.90;;;;;;5075998;28;20614;-81
2022/03/29 03:20:22;;;;;;;0.10;0.10;;;6.40;99.90;;;;;;5093173;28;20039;-80
2022/03/29 03:22:50;;;;;;;0.10;0.10;;;6.40;99.90;;;;;;5076089;28;20036;-80
2022/03/29 03:25:17;;;;;;;0.10;0.10;;;6.30;99.90;;;;;;5092621;28;20044;-80
2022/03/29 03:27:44;;;;;;;0.10;0.10;;;6.30;99.90;;;;;;5093005;28;20041;-81
2022/03/29 03:30:13;;;;;;;0.22;0.20;;;6.30;99.90;;;;;;5075996;28;20196;-80
2022/03/29 03:32:41;;;;;;;0.28;0.28;;;6.30;99.90;;;;;;5075816;28;20036;-81
2022/03/29 03:35:09;;;;;;;0.20;0.20;;;6.30;99.90;;;;;;5092480;28;20046;-80
2022/03/29 03:37:37;;;;;;;0.15;0.15;;;6.30;99.90;;;;;;5075699;28;20389;-81
2022/03/29 03:40:06;;;;;;;0.68;0.68;;;6.30;99.90;;;;;;5092655;28;20066;-80
2022/03/29 03:42:33;;;;;;;0.10;0.10;;;6.30;99.90;;;;;;5092474;28;20044;-80
2022/03/29 03:45:02;;;;;;;0.10;0.10;;;6.30;99.90;;;;;;5075785;28;20045;-81
2022/03/29 03:47:29;;;;;;;0.10;0.10;;;6.30;99.90;;;;;;5093974;28;20131;-81
2022/03/29 03:49:56;;;;;;;0.10;0.10;;;6.30;99.90;;;;;;5079648;28;20031;-80
2022/03/29 03:52:23;;;;;;;0.10;0.10;;;6.30;99.90;;;;;;5079605;28;20504;-80
2022/03/29 03:54:50;;;;;;;0.10;0.10;;;6.30;99.90;;;;;;5062737;28;20036;-80
2022/03/29 03:57:18;;;;;;;0.10;0.10;;;6.30;99.90;;;;;;5062971;28;20032;-80
2022/03/29 03:59:48;;;;;;;0.10;0.10;;;6.30;99.90;;;;;;5095791;28;20119;-81
2022/03/29 04:02:15;;;;;;;0.10;0.10;;;6.20;99.90;;;;;;5112935;28;20048;-80
2022/03/29 04:04:42;;;;;;;0.20;0.20;;;6.30;99.90;;;;;;5078901;28;20398;-80
2022/03/29 04:07:08;;;;;;;0.10;0.10;;;6.30;99.90;;;;;;5063216;28;20071;-81
2022/03/29 04:09:35;;;;;;;0.20;0.20;;;6.20;99.90;;;;;;5062779;28;20863;-81
2022/03/29 04:12:06;;;;;;;0.10;0.10;;;6.20;99.90;;;;;;5078728;28;20060;-81
2022/03/29 04:14:33;;;;;;;0.20;0.20;;;6.20;99.90;;;;;;5062758;28;20040;-80
2022/03/29 04:17:03;;;;;;;0.10;0.10;;;6.30;99.90;;;;;;5112217;28;20048;-80
2022/03/29 04:19:29;;;;;;;0.10;0.10;;;6.30;99.90;;;;;;5079326;28;20044;-80
2022/03/29 04:21:56;;;;;;;0.10;0.10;;;6.30;99.90;;;;;;5078720;28;20047;-81
2022/03/29 04:24:24;;;;;;;0.10;0.10;;;6.30;99.90;;;;;;5062551;28;20078;-80
2022/03/29 04:26:51;;;;;;;0.10;0.10;;;6.30;99.90;;;;;;5095250;28;20505;-81
2022/03/29 04:29:19;;;;;;;0.10;0.10;;;6.30;99.90;;;;;;5062816;28;20036;-80
2022/03/29 04:31:46;;;;;;;0.30;0.30;;;6.30;99.90;;;;;;5095137;28;20040;-81
2022/03/29 04:34:13;;;;;;;0.10;0.10;;;6.30;99.90;;;;;;5111953;28;20059;-81
2022/03/29 04:36:40;;;;;;;0.10;0.10;;;6.70;99.90;;;;;;5078757;28;20047;-80
2022/03/29 04:39:07;;;;;;;0.15;0.15;;;6.30;99.90;;;;;;5062186;28;20047;-80
2022/03/29 04:41:34;;;;;;;0.20;0.20;;;6.30;99.90;;;;;;5111755;28;20040;-80
2022/03/29 04:44:00;;;;;;;0.20;0.20;;;6.30;99.90;;;;;;5111430;28;20040;-80
2022/03/29 04:46:27;;;;;;;0.20;0.20;;;6.40;99.90;;;;;;5062409;28;20036;-80
2022/03/29 04:48:54;;;;;;;0.10;0.10;;;6.30;99.90;;;;;;5061605;28;20496;-80
2022/03/29 04:51:21;;;;;;;0.10;0.10;;;6.40;99.90;;;;;;5062154;28;20116;-80
2022/03/29 04:53:47;;;;;;;0.28;0.28;;;6.40;99.90;;;;;;5094840;28;20040;-80
2022/03/29 04:56:14;;;;;;;0.10;0.10;;;6.30;99.90;;;;;;5062028;28;20782;-80
2022/03/29 04:58:41;;;;;;;0.10;0.10;;;6.30;99.90;;;;;;5110488;28;20044;-80
2022/03/29 05:01:08;;;;;;;0.10;0.10;;;6.30;99.90;;;;;;5111160;28;20821;-80
2022/03/29 05:03:35;;;;;;;0.10;0.10;;;6.30;99.90;;;;;;5061411;28;20492;-80
2022/03/29 05:06:01;;;;;;;0.10;0.10;;;6.30;99.90;;;;;;5077778;28;20040;-80
2022/03/29 05:08:28;;;;;;;0.10;0.10;;;6.30;99.90;;;;;;5094942;28;20028;-80
2022/03/29 05:10:55;;;;;;;0.10;0.10;;;6.40;99.90;;;;;;5077625;28;20484;-80
2022/03/29 05:13:22;;;;;;;0.10;0.10;;;6.30;99.90;;;;;;5077870;28;20048;-80
2022/03/29 05:15:48;;;;;;;0.10;0.10;;;6.30;99.90;;;;;;5077237;28;20047;-80
2022/03/29 05:18:15;;;;;;;0.10;0.10;;;6.30;99.90;;;;;;5081222;28;20040;-80
2022/03/29 05:20:42;;;;;;;0.10;0.10;;;6.30;99.90;;;;;;5090662;28;20040;-80
2022/03/29 05:23:08;;;;;;;0.10;0.10;;;6.30;99.90;;;;;;5040605;28;20047;-80
2022/03/29 05:25:36;;;;;;;0.10;0.10;;;6.30;99.90;;;;;;5084844;28;20039;-80
2022/03/29 05:28:03;;;;;;;0.10;0.10;;;6.30;99.90;;;;;;5090926;28;20461;-80
2022/03/29 05:30:29;;;;;;;0.10;0.10;;;6.30;99.90;;;;;;5092204;28;20037;-80
2022/03/29 05:33:00;;;;;;;0.10;0.10;;;6.30;99.90;;;;;;5059743;28;20036;-80
2022/03/29 05:35:32;;;;;;;0.38;0.20;;;6.30;99.90;;;;;;5077616;28;20035;-80
2022/03/29 05:38:02;;;;;;;0.10;0.10;;;6.20;99.90;;;;;;5093718;28;20123;-80
2022/03/29 05:40:29;;;;;;;0.10;0.10;;;6.30;99.90;;;;;;5100446;28;20115;-79
2022/03/29 05:42:56;;;;;;;0.10;0.10;;;6.30;99.90;;;;;;5080677;28;20119;-80
2022/03/29 05:45:23;;;;;;;0.10;0.10;;;6.20;99.90;;;;;;5082286;28;20870;-80
2022/03/29 05:50:35;;;;;;;0.10;0.10;;;6.30;99.90;;;;;;5096308;28;20040;-80
2022/03/29 05:53:02;;;;;;;0.10;0.10;;;6.30;99.90;;;;;;5109987;28;20483;-80
2022/03/29 05:55:29;;;;;;;0.10;0.10;;;6.30;99.90;;;;;;5093284;28;20060;-80
2022/03/29 05:57:56;;;;;;;0.10;0.10;;;6.30;99.90;;;;;;5076506;28;20095;-80
2022/03/29 06:00:24;;;;;;;0.10;0.10;;;6.30;99.90;;;;;;5110414;28;20043;-81
2022/03/29 06:02:51;;;;;;;0.10;0.10;;;6.40;99.90;;;;;;5110029;28;20480;-81
2022/03/29 06:05:18;;;;;;;0.10;0.10;;;6.40;99.90;;;;;;5093191;28;20040;-81
2022/03/29 06:07:45;;;;;;;0.10;0.10;;;6.40;99.90;;;;;;5077412;28;20181;-82
2022/03/29 06:10:12;;;;;;;0.10;0.10;;;6.40;99.90;;;;;;5093046;28;20040;-82
2022/03/29 06:12:39;;;;;;;0.10;0.10;;;6.40;99.90;;;;;;5092613;28;20524;-82
2022/03/29 06:15:11;;;;;;;0.10;0.10;;;6.50;99.90;;;;;;5076740;28;20044;-82
2022/03/29 06:17:38;;;;;;;0.10;0.10;;;6.50;99.90;;;;;;5094081;28;20044;-82
2022/03/29 06:20:09;;;;;;;0.10;0.10;;;6.50;99.90;;;;;;5109515;28;20420;-82
2022/03/29 06:22:43;;;;;;;0.10;0.10;;;6.50;99.90;;;;;;5093883;28;20044;-82
2022/03/29 06:25:11;;;;;;;0.10;0.10;;;6.50;99.90;;;;;;5102431;28;20493;-82
2022/03/29 06:27:38;;;;;;;0.10;0.10;;;6.50;99.90;;;;;;5089615;28;20904;-82
2022/03/29 06:30:07;;;;;;;0.10;0.10;;;6.60;99.90;;;;;;5058847;28;20040;-82
2022/03/29 06:32:43;;;;;;;0.10;0.10;;;6.60;99.90;;;;;;5076614;28;20564;-82
2022/03/29 06:35:10;;;;;;;0.10;0.10;;;6.60;99.90;;;;;;5089931;28;20093;-82
2022/03/29 06:37:43;;;;;;;0.10;0.10;;;6.60;99.90;;;;;;5078265;28;20040;-82
2022/03/29 06:40:10;;;;;;;0.10;0.10;;;6.60;99.90;;;;;;5092698;28;20130;-82
2022/03/29 06:42:37;;;;;;;0.10;0.10;;;6.60;99.90;;;;;;5109495;28;20560;-81
2022/03/29 06:45:04;;;;;;;0.10;0.10;;;6.70;99.90;;;;;;5075658;28;20127;-82
2022/03/29 06:47:32;;;;;;;0.10;0.10;;;6.60;99.90;;;;;;5093144;28;20135;-82
2022/03/29 06:49:59;;;;;;;0.10;0.10;;;6.70;99.90;;;;;;5092927;28;20121;-82
2022/03/29 06:52:27;;;;;;;0.35;0.30;;;6.70;99.90;;;;;;5076388;28;20203;-82
2022/03/29 06:54:54;;;;;;;0.10;0.10;;;6.80;99.90;;;;;;5092911;28;20051;-82
2022/03/29 06:57:21;;;;;;;0.10;0.10;;;6.70;99.90;;;;;;5075930;28;20050;-81
2022/03/29 06:59:48;;;;;;;0.32;0.32;;;6.80;99.90;;;;;;5092547;28;20044;-82
2022/03/29 07:02:14;;;;;;;0.10;0.10;;;6.80;99.90;;;;;;5079057;28;20047;-82
2022/03/29 07:04:42;;;;;;;0.10;0.10;;;6.80;99.90;;;;;;5075457;28;20401;-82
2022/03/29 07:07:09;;;;;;;0.10;0.10;;;6.70;99.90;;;;;;5090532;28;20032;-82
2022/03/29 07:12:21;;;;;;;0.10;0.10;;;6.80;99.90;;;;;;5094686;28;20047;-82
2022/03/29 07:14:48;;;;;;;0.10;0.10;;;6.70;99.90;;;;;;5076338;28;20040;-82
2022/03/29 07:17:16;;;;;;;0.10;0.10;;;6.80;99.90;;;;;;5078849;28;20478;-82
2022/03/29 07:19:43;;;;;;;0.10;0.10;;;6.80;99.90;;;;;;5056621;28;20040;-82
2022/03/29 07:22:10;;;;;;;0.10;0.10;;;6.80;99.90;;;;;;5069201;28;20052;-82
2022/03/29 07:24:38;;;;;;;0.10;0.10;;;6.80;99.90;;;;;;5076372;28;20040;-82
2022/03/29 07:27:04;;;;;;;0.10;0.10;;;6.90;99.90;;;;;;5060259;28;20043;-82
2022/03/29 07:29:32;;;;;;;0.10;0.10;;;6.90;99.90;;;;;;5081866;28;20599;-81
2022/03/29 07:31:59;;;;;;;0.10;0.10;;;6.90;99.90;;;;;;5092072;28;20041;-81
2022/03/29 07:34:26;;;;;;;0.10;0.10;;;6.90;99.90;;;;;;5066877;28;20036;-81
2022/03/29 07:36:56;;;;;;;0.10;0.10;;;7.10;99.90;;;;;;5079815;28;20044;-81
2022/03/29 07:39:23;;;;;;;0.10;0.10;;;6.90;99.90;;;;;;5076566;28;20032;-81
2022/03/29 07:41:49;;;;;;;0.10;0.10;;;6.90;99.90;;;;;;5076231;28;20041;-82
2022/03/29 07:44:17;;;;;;;0.10;0.10;;;6.90;99.90;;;;;;5060248;28;20715;-81
2022/03/29 07:46:44;;;;;;;0.10;0.10;;;7.00;99.90;;;;;;5079276;28;20117;-80
2022/03/29 07:49:11;;;;;;;0.10;0.10;;;7.00;99.90;;;;;;5078528;28;20043;-81
2022/03/29 07:51:38;;;;;;;0.10;0.10;;;7.00;99.90;;;;;;5078216;28;20054;-81
2022/03/29 07:54:05;;;;;;;0.13;0.13;;;7.00;99.90;;;;;;5065959;28;20055;-82
2022/03/29 07:56:32;;;;;;;0.10;0.10;;;7.00;99.90;;;;;;5092006;28;20469;-81
2022/03/29 07:58:59;;;;;;;0.10;0.10;;;7.10;99.90;;;;;;5100169;28;20126;-82
2022/03/29 08:01:28;;;;;;;0.10;0.10;;;7.10;99.90;;;;;;5109900;28;20040;-82
2022/03/29 08:03:55;;;;;;;0.10;0.10;;;7.10;99.90;;;;;;5078584;28;20044;-81
2022/03/29 08:06:22;;;;;;;0.32;0.32;;;7.20;99.90;;;;;;5091629;28;20039;-81
2022/03/29 08:08:49;;;;;;;0.10;0.10;;;7.10;99.90;;;;;;5092214;28;20037;-81
2022/03/29 08:11:16;;;;;;;0.10;0.10;;;7.20;99.90;;;;;;5042316;28;20051;-80
2022/03/29 08:13:43;;;;;;;0.10;0.10;;;7.40;99.90;;;;;;5058686;28;20061;-81
2022/03/29 08:16:09;;;;;;;0.10;0.10;;;7.20;99.90;;;;;;5041812;28;20079;-81
2022/03/29 08:18:38;;;;;;;0.10;0.10;;;7.30;99.90;;;;;;5058899;28;20036;-82
2022/03/29 08:21:47;;;;;;;0.10;0.10;;;7.30;99.90;;;;;;5043194;28;20048;-81
2022/03/29 08:23:52;;;;;;;0.10;0.10;;;7.30;99.90;;;;;;5063890;28;20053;-81
2022/03/29 08:26:19;;;;;;;0.10;0.10;;;7.30;99.90;;;;;;5091187;28;20518;-81
2022/03/29 08:28:46;;;;;;;0.10;0.10;;;7.40;99.90;;;;;;5091917;28;20048;-81
2022/03/29 08:31:13;;;;;;;0.10;0.10;;;7.40;99.90;;;;;;5041537;28;20032;-80
2022/03/29 08:33:39;;;;;;;0.10;0.10;;;7.40;99.90;;;;;;5041584;28;20154;-81
2022/03/29 08:36:06;;;;;;;0.10;0.10;;;7.50;99.90;;;;;;5042272;28;20127;-81
2022/03/29 08:38:33;;;;;;;0.10;0.10;;;7.60;99.90;;;;;;5041762;28;20458;-80
2022/03/29 08:41:00;;;;;;;0.10;0.10;;;7.70;99.90;;;;;;5041910;28;20413;-82
2022/03/29 08:43:29;;;;;;;0.10;0.10;;;7.80;99.90;;;;;;5058117;28;20044;-81
2022/03/29 08:45:57;;;;;;;0.10;0.10;;;7.80;99.90;;;;;;5058239;28;20036;-80
2022/03/29 08:48:28;;;;;;;0.00;0.00;;;7.80;99.90;;;;;;5090640;28;20044;-82
2022/03/29 08:50:57;;;;;;;0.22;0.22;;;7.90;99.90;;;;;;5085634;28;20059;-80
2022/03/29 08:53:24;;;;;;;0.43;0.43;;;7.90;99.90;;;;;;5088973;28;20415;-80
2022/03/29 08:55:51;;;;;;;0.10;0.10;;;7.90;99.90;;;;;;5079093;28;20122;-80
2022/03/29 08:58:18;;;;;;;0.10;0.10;;;7.90;99.90;;;;;;5077646;28;20043;-81
2022/03/29 09:00:46;;;;;;;0.10;0.10;;;7.90;99.90;;;;;;5077445;28;20042;-81
2022/03/29 09:03:16;;;;;;;0.10;0.10;;;7.90;99.90;;;;;;5077201;28;20050;-81
2022/03/29 09:05:43;;;;;;;0.10;0.10;;;7.90;99.90;;;;;;5077533;28;20039;-81
2022/03/29 09:08:11;;;;;;;0.00;0.00;;;7.90;99.90;;;;;;5110550;28;20408;-81
2022/03/29 09:10:51;;;;;;;0.10;0.10;;;7.90;99.90;;;;;;5061412;28;20040;-81
2022/03/29 09:13:23;;;;;;;0.10;0.10;;;8.00;99.90;;;;;;5074734;28;20577;-81
2022/03/29 09:16:01;;;;;;;0.10;0.10;;;8.10;99.90;;;;;;5086707;28;20033;-80
2022/03/29 09:18:30;;;;;;;0.00;0.00;;;8.20;99.90;;;;;;5052290;28;20120;-81
2022/03/29 09:21:14;;;;;;;0.10;0.10;;;8.20;99.90;;;;;;5083922;28;20374;-80
2022/03/29 09:23:43;;;;;;;0.10;0.10;;;8.40;99.90;;;;;;5056584;28;20037;-80
2022/03/29 09:26:26;;;;;;;0.10;0.10;;;8.50;99.90;;;;;;5067320;28;20041;-81
2022/03/29 09:28:53;;;;;;;0.10;0.10;;;8.60;99.90;;;;;;5034529;28;20048;-81
2022/03/29 09:31:27;;;;;;;0.10;0.10;;;8.60;99.90;;;;;;5033664;28;20033;-80
2022/03/29 09:34:13;;;;;;;0.10;0.10;;;8.60;99.90;;;;;;5054598;28;20128;-81
2022/03/29 09:36:59;;;;;;;0.10;0.10;;;8.60;99.90;;;;;;5070339;28;20040;-81
2022/03/29 09:39:38;;;;;;;0.10;0.10;;;8.50;99.90;;;;;;5053476;28;20123;-83
2022/03/29 09:42:09;;;;;;;0.10;0.10;;;8.60;99.90;;;;;;5086605;28;20095;-82
2022/03/29 09:44:45;;;;;;;0.08;0.08;;;8.50;99.90;;;;;;5077477;28;20047;-83
2022/03/29 09:47:15;;;;;;;0.10;0.10;;;8.60;99.90;;;;;;5049772;28;20041;-82
2022/03/29 09:50:09;;;;;;;0.10;0.10;;;8.60;99.90;;;;;;5033548;28;20254;-83
2022/03/29 09:52:38;;;;;;;0.17;0.17;;;8.60;99.90;;;;;;5049707;28;20045;-81
2022/03/29 09:55:20;;;;;;;0.22;0.22;;;8.70;99.90;;;;;;5050155;28;20033;-82
2022/03/29 09:57:49;;;;;;;0.15;0.15;;;8.60;99.90;;;;;;5071674;28;20045;-81
2022/03/29 10:00:36;;;;;;;0.10;0.10;;;8.70;99.90;;;;;;5060475;28;20064;-80
2022/03/29 10:03:08;;;;;;;0.10;0.10;;;8.70;99.90;;;;;;5086420;28;20041;-81
2022/03/29 10:05:37;;;;;;;0.47;0.17;;;8.70;99.90;;;;;;5086061;28;20063;-81
2022/03/29 10:10:54;;;;;;;0.10;0.10;;;8.80;99.90;;;;;;5082551;28;20037;-81
2022/03/29 10:13:23;;;;;;;0.10;0.10;;;8.90;99.90;;;;;;5060059;28;20068;-81
2022/03/29 10:15:54;;;;;;;0.00;0.00;;;9.00;99.90;;;;;;5043749;28;20041;-81
2022/03/29 10:18:21;;;;;;;0.00;0.00;;;9.00;99.90;;;;;;5069104;28;20387;-81
2022/03/29 10:20:48;;;;;;;0.10;0.10;;;9.00;99.90;;;;;;5072472;28;20116;-81
2022/03/29 10:23:18;;;;;;;0.10;0.10;;;9.00;99.90;;;;;;5066547;28;20482;-81
2022/03/29 10:25:45;;;;;;;0.10;0.10;;;9.00;99.90;;;;;;5064445;28;20120;-81
2022/03/29 10:28:12;;;;;;;0.10;0.10;;;9.10;99.90;;;;;;5061058;28;20052;-81
2022/03/29 10:30:41;;;;;;;0.10;0.10;;;9.20;99.90;;;;;;5063311;28;20118;-81
2022/03/29 10:33:23;;;;;;;0.10;0.10;;;9.20;99.90;;;;;;5065974;28;20064;-81
2022/03/29 10:35:59;;;;;;;0.10;0.10;;;9.20;99.90;;;;;;5072467;28;20088;-81
2022/03/29 10:38:46;;;;;;;0.10;0.10;;;9.30;99.90;;;;;;5048801;28;20117;-81
2022/03/29 10:41:28;;;;;;;0.10;0.10;;;9.30;99.90;;;;;;5049236;28;20038;-81
2022/03/29 10:44:08;;;;;;;2.13;1.25;;;9.30;99.90;;;;;;5049397;28;20045;-81
2022/03/29 10:46:41;;;;;;;0.10;0.10;;;9.40;99.90;;;;;;5033130;28;20044;-82
2022/03/29 10:49:32;;;;;;;0.00;0.00;;;9.40;99.90;;;;;;5049233;28;20413;-82
2022/03/29 10:52:04;;;;;;;0.00;0.00;;;9.40;99.90;;;;;;5057972;28;20121;-81
2022/03/29 10:54:41;;;;;;;0.10;0.10;;;9.50;99.90;;;;;;5073615;28;20489;-82
2022/03/29 10:57:20;;;;;;;0.40;0.13;;;9.60;99.90;;;;;;5054966;28;20064;-82
2022/03/29 10:59:51;;;;;;;0.10;0.10;;;9.50;99.90;;;;;;5061769;28;20037;-82
2022/03/29 11:02:22;;;;;;;0.10;0.10;;;9.50;99.90;;;;;;5072095;28;20049;-82
2022/03/29 11:05:10;;;;;;;0.00;0.00;;;9.40;99.90;;;;;;5071818;28;20045;-82
2022/03/29 11:07:40;;;;;;;0.00;0.00;;;9.40;99.90;;;;;;5071515;28;20041;-81
2022/03/29 11:10:15;;;;;;;0.10;0.10;;;9.40;99.90;;;;;;5057916;28;20041;-82
2022/03/29 11:12:49;;;;;;;0.10;0.10;;;9.40;99.90;;;;;;5054551;28;20061;-82
2022/03/29 11:15:25;;;;;;;0.20;0.20;;;9.40;99.90;;;;;;5036721;28;20051;-82
2022/03/29 11:17:53;;;;;;;0.10;0.10;;;9.30;99.90;;;;;;5052759;28;20067;-82
2022/03/29 11:20:32;;;;;;;0.10;0.10;;;9.30;99.90;;;;;;5052826;28;20037;-81
2022/03/29 11:23:06;;;;;;;0.10;0.10;;;9.30;99.90;;;;;;5052435;28;20128;-81
2022/03/29 11:25:43;;;;;;;0.10;0.10;;;9.40;99.90;;;;;;5052501;28;20045;-81
2022/03/29 11:28:12;;;;;;;0.10;0.10;;;9.30;99.90;;;;;;5052887;28;20033;-81
2022/03/29 11:30:39;;;;;;;0.70;0.20;;;9.40;99.90;;;;;;5068857;28;20038;-81
2022/03/29 11:33:07;;;;;;;0.00;0.00;;;9.40;99.90;;;;;;5062021;28;20041;-81
2022/03/29 11:35:37;;;;;;;0.10;0.10;;;9.30;99.90;;;;;;5072204;28;20489;-81
2022/03/29 11:38:18;;;;;;;0.10;0.10;;;9.30;99.90;;;;;;5072596;28;20041;-80
2022/03/29 11:40:45;;;;;;;0.00;0.00;;;9.40;99.90;;;;;;5072543;28;20080;-81
2022/03/29 11:43:13;;;;;;;0.00;0.00;;;9.30;99.90;;;;;;5055584;28;20065;-81
2022/03/29 11:45:42;;;;;;;0.00;0.00;;;9.20;99.90;;;;;;5068636;28;20111;-81
2022/03/29 11:48:12;;;;;;;0.03;0.03;;;9.20;99.90;;;;;;5060448;28;20043;-81
2022/03/29 11:50:44;;;;;;;0.00;0.00;;;9.30;99.90;;;;;;5088292;28;20037;-81
2022/03/29 11:53:27;;;;;;;0.00;0.00;;;9.30;99.90;;;;;;5082530;28;20060;-81
2022/03/29 11:55:58;;;;;;;0.00;0.00;;;9.30;99.90;;;;;;5062818;28;20052;-81
2022/03/29 11:58:38;;;;;;;0.10;0.10;;;9.40;99.90;;;;;;5068888;28;20115;-81
2022/03/29 12:01:19;;;;;;;0.00;0.00;;;9.70;99.90;;;;;;5067791;28;20037;-81
2022/03/29 12:03:48;;;;;;;0.00;0.00;;;9.60;99.90;;;;;;5053811;28;20064;-81
2022/03/29 12:06:21;;;;;;;0.10;0.10;;;9.50;99.90;;;;;;5062400;28;20041;-81
2022/03/29 12:08:56;;;;;;;0.00;0.00;;;9.50;99.90;;;;;;5057410;28;20772;-81
2022/03/29 12:11:29;;;;;;;0.10;0.10;;;9.50;99.90;;;;;;5070078;28;20111;-81
2022/03/29 12:14:06;;;;;;;0.10;0.10;;;9.40;99.90;;;;;;5083657;28;20051;-81
2022/03/29 12:16:41;;;;;;;0.10;0.10;;;9.30;99.90;;;;;;5121001;28;20081;-81
2022/03/29 12:19:11;;;;;;;0.00;0.00;;;9.30;99.90;;;;;;5073098;28;20040;-81
2022/03/29 12:21:39;;;;;;;0.00;0.00;;;9.30;99.90;;;;;;5090339;28;20412;-83
2022/03/29 12:24:08;;;;;;;0.10;0.10;;;9.30;99.90;;;;;;5089687;28;20115;-83
2022/03/29 12:26:44;;;;;;;0.00;0.00;;;9.30;99.90;;;;;;5092199;28;20483;-83
2022/03/29 12:29:13;;;;;;;0.20;0.10;;;9.30;99.90;;;;;;5104792;28;20045;-83
2022/03/29 12:31:40;;;;;;;0.10;0.10;;;9.40;99.90;;;;;;5068934;28;20462;-82
2022/03/29 12:34:08;;;;;;;0.00;0.00;;;9.30;99.90;;;;;;5094912;28;20101;-83
2022/03/29 12:36:40;;;;;;;0.00;0.00;;;9.40;99.90;;;;;;5094257;28;20040;-82
2022/03/29 12:39:08;;;;;;;0.10;0.10;;;9.30;99.90;;;;;;5106872;28;20044;-82
2022/03/29 12:41:46;;;;;;;0.10;0.10;;;9.40;99.90;;;;;;5090814;28;20039;-82
2022/03/29 12:44:15;;;;;;;0.10;0.10;;;9.50;99.90;;;;;;5082091;28;20120;-82
2022/03/29 12:46:44;;;;;;;0.00;0.00;;;9.70;99.90;;;;;;5090715;28;20041;-81
2022/03/29 12:49:13;;;;;;;0.03;0.03;;;9.90;99.90;;;;;;5094344;28;20485;-82
2022/03/29 12:51:40;;;;;;;0.80;0.60;;;10.00;99.90;;;;;;5077261;28;20036;-82
2022/03/29 12:54:09;;;;;;;0.00;0.00;;;10.00;99.90;;;;;;5083984;28;20086;-82
2022/03/29 12:56:40;;;;;;;0.10;0.10;;;9.90;99.90;;;;;;5083974;28;20044;-82
2022/03/29 12:59:27;;;;;;;0.00;0.00;;;9.80;99.90;;;;;;5093273;28;20036;-82
2022/03/29 13:02:21;;;;;;;0.00;0.00;;;9.80;99.90;;;;;;5073881;28;20040;-82
2022/03/29 13:04:52;;;;;;;0.10;0.10;;;9.60;99.90;;;;;;5089428;28;20087;-82
2022/03/29 13:07:49;;;;;;;0.10;0.10;;;9.60;99.90;;;;;;5088386;28;20033;-81
2022/03/29 13:10:16;;;;;;;1.65;0.30;;;9.70;99.90;;;;;;5081673;28;20037;-82
2022/03/29 13:12:55;;;;;;;0.00;0.00;;;9.60;99.90;;;;;;5097073;28;20514;-82
2022/03/29 13:15:47;;;;;;;0.10;0.10;;;9.70;99.90;;;;;;5090845;28;20559;-81
2022/03/29 13:18:20;;;;;;;0.10;0.10;;;9.80;99.90;;;;;;5090844;28;20447;-81
2022/03/29 13:20:47;;;;;;;0.00;0.00;;;9.80;99.90;;;;;;5089215;28;20040;-81